地図

経路データ

SID SEASON NUMBER BASIN SUBBASIN NAME ISO_TIME NATURE LAT LON WMO_WIND WMO_PRES WMO_AGENCY TRACK_TYPE DIST2LAND LANDFALL IFLAG USA_AGENCY USA_ATCF_ID USA_LAT USA_LON USA_RECORD USA_STATUS USA_WIND USA_PRES USA_SSHS USA_R34_NE USA_R34_SE USA_R34_SW USA_R34_NW USA_R50_NE USA_R50_SE USA_R50_SW USA_R50_NW USA_R64_NE USA_R64_SE USA_R64_SW USA_R64_NW USA_POCI USA_ROCI USA_RMW USA_EYE TOKYO_LAT TOKYO_LON TOKYO_GRADE TOKYO_WIND TOKYO_PRES TOKYO_R50_DIR TOKYO_R50_LONG TOKYO_R50_SHORT TOKYO_R30_DIR TOKYO_R30_LONG TOKYO_R30_SHORT TOKYO_LAND CMA_LAT CMA_LON CMA_CAT CMA_WIND CMA_PRES HKO_LAT HKO_LON HKO_CAT HKO_WIND HKO_PRES NEWDELHI_LAT NEWDELHI_LON NEWDELHI_GRADE NEWDELHI_WIND NEWDELHI_PRES NEWDELHI_CI NEWDELHI_DP NEWDELHI_POCI REUNION_LAT REUNION_LON REUNION_TYPE REUNION_WIND REUNION_PRES REUNION_TNUM REUNION_CI REUNION_RMW REUNION_R34_NE REUNION_R34_SE REUNION_R34_SW REUNION_R34_NW REUNION_R50_NE REUNION_R50_SE REUNION_R50_SW REUNION_R50_NW REUNION_R64_NE REUNION_R64_SE REUNION_R64_SW REUNION_R64_NW BOM_LAT BOM_LON BOM_TYPE BOM_WIND BOM_PRES BOM_TNUM BOM_CI BOM_RMW BOM_R34_NE BOM_R34_SE BOM_R34_SW BOM_R34_NW BOM_R50_NE BOM_R50_SE BOM_R50_SW BOM_R50_NW BOM_R64_NE BOM_R64_SE BOM_R64_SW BOM_R64_NW BOM_ROCI BOM_POCI BOM_EYE BOM_POS_METHOD BOM_PRES_METHOD NADI_LAT NADI_LON NADI_CAT NADI_WIND NADI_PRES WELLINGTON_LAT WELLINGTON_LON WELLINGTON_WIND WELLINGTON_PRES DS824_LAT DS824_LON DS824_STAGE DS824_WIND DS824_PRES TD9636_LAT TD9636_LON TD9636_STAGE TD9636_WIND TD9636_PRES TD9635_LAT TD9635_LON TD9635_WIND TD9635_PRES TD9635_ROCI NEUMANN_LAT NEUMANN_LON NEUMANN_CLASS NEUMANN_WIND NEUMANN_PRES MLC_LAT MLC_LON MLC_CLASS MLC_WIND MLC_PRES USA_GUST BOM_GUST BOM_GUST_PER REUNION_GUST REUNION_GUST_PER USA_SEAHGT USA_SEARAD_NE USA_SEARAD_SE USA_SEARAD_SW USA_SEARAD_NW STORM_SPEED STORM_DIR
1975247N13336 1975 86 NA NA NOT_NAMED 1975-09-03 12:00:00 TS 13.5000 -24.0000 20 hurdat_atl main 714 714 O_____________ hurdat_atl AL091975 13.5000 -24.0000 TD 20 -1 12 284
1975247N13336 1975 86 NA NA NOT_NAMED 1975-09-03 15:00:00 TS 13.6402 -24.5899 main 775 775 P_____________ AL091975 13.6402 -24.5899 TD 22 -1 12 284
1975247N13336 1975 86 NA NA NOT_NAMED 1975-09-03 18:00:00 TS 13.8000 -25.2000 25 hurdat_atl main 836 836 O_____________ hurdat_atl AL091975 13.8000 -25.2000 TD 25 -1 13 286
1975247N13336 1975 86 NA NA NOT_NAMED 1975-09-03 21:00:00 TS 13.9924 -25.8425 main 897 897 P_____________ AL091975 13.9924 -25.8425 TD 25 -1 13 288
1975247N13336 1975 86 NA NA NOT_NAMED 1975-09-04 00:00:00 TS 14.2000 -26.5000 25 hurdat_atl main 971 971 O_____________ hurdat_atl AL091975 14.2000 -26.5000 TD 25 -1 13 288
1975247N13336 1975 86 NA NA NOT_NAMED 1975-09-04 03:00:00 TS 14.3999 -27.1576 main 1044 1044 P_____________ AL091975 14.3999 -27.1576 TD 27 -1 13 288
1975247N13336 1975 86 NA NA NOT_NAMED 1975-09-04 06:00:00 TS 14.6000 -27.8000 30 hurdat_atl main 1108 1108 O_____________ hurdat_atl AL091975 14.6000 -27.8000 TD 30 -1 13 288
1975247N13336 1975 86 NA NA NOT_NAMED 1975-09-04 09:00:00 TS 14.7998 -28.4076 main 1172 1172 P_____________ AL091975 14.7998 -28.4076 TD 30 -1 12 289
1975247N13336 1975 86 NA NA NOT_NAMED 1975-09-04 12:00:00 TS 15.0000 -29.0000 30 hurdat_atl main 1236 1236 O_____________ hurdat_atl AL091975 15.0000 -29.0000 TD 30 -1 12 289
1975247N13336 1975 86 NA NA NOT_NAMED 1975-09-04 15:00:00 TS 15.1998 -29.5926 main 1301 1301 P_____________ AL091975 15.1998 -29.5926 TD 30 -1 12 289
1975247N13336 1975 86 NA NA NOT_NAMED 1975-09-04 18:00:00 TS 15.4000 -30.2000 30 hurdat_atl main 1366 1366 O_____________ hurdat_atl AL091975 15.4000 -30.2000 TD 30 -1 13 288
1975247N13336 1975 86 NA NA NOT_NAMED 1975-09-04 21:00:00 TS 15.5999 -30.8426 main 1431 1431 P_____________ AL091975 15.5999 -30.8426 TD 30 -1 13 288
1975247N13336 1975 86 NA NA NOT_NAMED 1975-09-05 00:00:00 TS 15.8000 -31.5000 30 hurdat_atl main 1507 1507 O_____________ hurdat_atl AL091975 15.8000 -31.5000 TD 30 -1 13 288
1975247N13336 1975 86 NA NA NOT_NAMED 1975-09-05 03:00:00 TS 16.0074 -32.1575 main 1583 1583 P_____________ AL091975 16.0074 -32.1575 TD 30 -1 13 288
1975247N13336 1975 86 NA NA NOT_NAMED 1975-09-05 06:00:00 TS 16.2000 -32.8000 30 hurdat_atl main 1648 1648 O_____________ hurdat_atl AL091975 16.2000 -32.8000 TD 30 -1 12 287
1975247N13336 1975 86 NA NA NOT_NAMED 1975-09-05 09:00:00 TS 16.3646 -33.3852 main 1714 1714 P_____________ AL091975 16.3646 -33.3852 TD 30 -1 12 285
1975247N13336 1975 86 NA NA NOT_NAMED 1975-09-05 12:00:00 TS 16.5000 -34.0000 30 hurdat_atl main 1778 1778 O_____________ hurdat_atl AL091975 16.5000 -34.0000 TD 30 -1 13 281
1975247N13336 1975 86 NA NA NOT_NAMED 1975-09-05 15:00:00 TS 16.6150 -34.7275 main 1853 1853 P_____________ AL091975 16.6150 -34.7275 TD 30 -1 15 278
1975247N13336 1975 86 NA NA NOT_NAMED 1975-09-05 18:00:00 TS 16.7000 -35.5000 30 hurdat_atl main 1939 1939 O_____________ hurdat_atl AL091975 16.7000 -35.5000 TD 30 -1 15 276
1975247N13336 1975 86 NA NA NOT_NAMED 1975-09-05 21:00:00 TS 16.7572 -36.2501 main 2025 2025 P_____________ AL091975 16.7572 -36.2501 TD 30 -1 14 274
1975247N13336 1975 86 NA NA NOT_NAMED 1975-09-06 00:00:00 TS 16.8000 -37.0000 30 hurdat_atl main 2096 2040 O_____________ hurdat_atl AL091975 16.8000 -37.0000 TD 30 -1 14 274
1975247N13336 1975 86 NA NA NOT_NAMED 1975-09-06 03:00:00 TS 16.8497 -37.7500 main 2032 1985 P_____________ AL091975 16.8497 -37.7500 TD 30 -1 14 274
1975247N13336 1975 86 NA NA NOT_NAMED 1975-09-06 06:00:00 TS 16.9000 -38.5000 30 hurdat_atl main 1985 1940 O_____________ hurdat_atl AL091975 16.9000 -38.5000 TD 30 -1 14 275
1975247N13336 1975 86 NA NA NOT_NAMED 1975-09-06 09:00:00 TS 16.9647 -39.2499 main 1940 1882 P_____________ AL091975 16.9647 -39.2499 TD 30 -1 14 274
1975247N13336 1975 86 NA NA NOT_NAMED 1975-09-06 12:00:00 TS 17.0000 -40.0000 30 hurdat_atl main 1882 1833 O_____________ hurdat_atl AL091975 17.0000 -40.0000 TD 30 -1 14 270
1975247N13336 1975 86 NA NA NOT_NAMED 1975-09-06 15:00:00 TS 16.9722 -40.7500 main 1826 1770 P_____________ AL091975 16.9722 -40.7500 TD 30 -1 14 266
1975247N13336 1975 86 NA NA NOT_NAMED 1975-09-06 18:00:00 TS 16.9000 -41.5000 30 hurdat_atl main 1770 1716 O_____________ hurdat_atl AL091975 16.9000 -41.5000 TD 30 -1 14 263
1975247N13336 1975 86 NA NA NOT_NAMED 1975-09-06 21:00:00 TS 16.7997 -42.2501 main 1710 1658 P_____________ AL091975 16.7997 -42.2501 TD 30 -1 15 262
1975247N13336 1975 86 NA NA NOT_NAMED 1975-09-07 00:00:00 TS 16.7000 -43.0000 30 hurdat_atl main 1658 1603 O_____________ hurdat_atl AL091975 16.7000 -43.0000 TD 30 -1 14 264
1975247N13336 1975 86 NA NA NOT_NAMED 1975-09-07 03:00:00 TS 16.6422 -43.7499 main 1603 1552 P_____________ AL091975 16.6422 -43.7499 TD 30 -1 14 266
1975247N13336 1975 86 NA NA NOT_NAMED 1975-09-07 06:00:00 TS 16.6000 -44.5000 30 hurdat_atl main 1552 1510 O_____________ hurdat_atl AL091975 16.6000 -44.5000 TD 30 -1 14 267
1975247N13336 1975 86 NA NA NOT_NAMED 1975-09-07 09:00:00 TS 16.5646 -45.2423 main 1510 1456 P_____________ AL091975 16.5646 -45.2423 TD 30 -1 14 266
1975247N13336 1975 86 NA NA NOT_NAMED 1975-09-07 12:00:00 TS 16.5000 -46.0000 30 hurdat_atl main 1456 1409 O_____________ hurdat_atl AL091975 16.5000 -46.0000 TD 30 -1 15 262
1975247N13336 1975 86 NA NA NOT_NAMED 1975-09-07 15:00:00 TS 16.3567 -46.7476 main 1409 1350 P_____________ AL091975 16.3567 -46.7476 TD 30 -1 16 259
1975247N13336 1975 86 NA NA NOT_NAMED 1975-09-07 18:00:00 TS 16.2000 -47.6000 30 hurdat_atl main 1346 1293 O_____________ hurdat_atl AL091975 16.2000 -47.6000 TD 30 -1 19 262
1975247N13336 1975 86 NA NA NOT_NAMED 1975-09-07 21:00:00 TS 16.1005 -48.6848 main 1289 1233 P_____________ AL091975 16.1005 -48.6848 TD 27 -1 21 265
1975247N13336 1975 86 NA NA NOT_NAMED 1975-09-08 00:00:00 TS 16.0000 -49.8000 25 hurdat_atl main 1228 1183 O_____________ hurdat_atl AL091975 16.0000 -49.8000 TD 25 -1 20 263
1975247N13336 1975 86 NA NA NOT_NAMED 1975-09-08 03:00:00 TS 15.8491 -50.7225 main 1172 1136 P_____________ AL091975 15.8491 -50.7225 TD 25 -1 18 260
1975247N13336 1975 86 NA NA NOT_NAMED 1975-09-08 06:00:00 TS 15.7000 -51.6000 25 hurdat_atl main 1133 1062 O_____________ hurdat_atl AL091975 15.7000 -51.6000 TD 25 -1 19 262
1975247N13336 1975 86 NA NA NOT_NAMED 1975-09-08 09:00:00 TS 15.5782 -52.6475 main 1062 974 P_____________ AL091975 15.5782 -52.6475 TD 25 -1 18 264
1975247N13336 1975 86 NA NA NOT_NAMED 1975-09-08 12:00:00 TS 15.5000 -53.5000 25 hurdat_atl main 974 956 O_____________ hurdat_atl AL091975 15.5000 -53.5000 TD 25 -1 10 265
1975247N13336 1975 86 NA NA NOT_NAMED 1975-09-08 15:00:00 TS 15.4831 -53.7049 main 956 929 P_____________ AL091975 15.4831 -53.7049 TD 25 -1 5 270
1975247N13336 1975 86 NA NA NOT_NAMED 1975-09-08 18:00:00 TS 15.5000 -54.0000 25 hurdat_atl main 929 835 O_____________ hurdat_atl AL091975 15.5000 -54.0000 TD 25 -1 14 271
1975247N13336 1975 86 NA NA NOT_NAMED 1975-09-08 21:00:00 TS 15.5022 -55.1750 main 826 732 P_____________ AL091975 15.5022 -55.1750 TD 22 -1 24 270
1975247N13336 1975 86 NA NA NOT_NAMED 1975-09-09 00:00:00 TS 15.5000 -56.5000 20 hurdat_atl main 725 664 O_____________ hurdat_atl AL091975 15.5000 -56.5000 TD 20 -1 21 270
1975247N13336 1975 86 NA NA NOT_NAMED 1975-09-09 03:00:00 TS 15.4986 -57.3998 main 664 628 P_____________ AL091975 15.4986 -57.3998 TD 20 -1 14 270
1975247N13336 1975 86 NA NA NOT_NAMED 1975-09-09 06:00:00 TS 15.5000 -58.0000 20 hurdat_atl main 628 O_____________ hurdat_atl AL091975 15.5000 -58.0000 TD 20 -1 12 270

IBTrACS Databaseについて

本データベースは、米国NOAAが公開する1842年以降の世界の熱帯低気圧のベストトラックデータアーカイブInternational Best Track Archive for Climate Stewardship (IBTrACS)を、ウェブで閲覧しやすい形式に変換したものです。

最終更新日:2021-11-26